South Lake Tahoe, CA

11:16 AM PDT en Agosto 30, 2014 (GMT -0700)
North Upper Truckee | Change Station
CLOSE
Current Station
Estación meteorológica personal
Location: South Lake Tahoe, CA
Altura: 6549 ft
Estaciones meteorológicas cercanas
Aviso en curso: Lake Wind Advisory

Alt 6549 ft 38.86 °N, 120.04 °W | Updated 4 seconds ago

Clear
Despejado
72.4 ° F
Sensación térmica 76 ° F
N
2.8
Viento Variable Viento desde SSE
Gusts 8.0 mph

Hoy
Alta -- | Baja -- ° F
--% Posibilidad de precipitaciones
Ayer
Alta -- | Baja -- ° F
Precip. -- pul
6:27 AM 7:33 PM
Creciente, 23% visible
Presión 29.94 pul
Visibilidad 10.0 Millas
Nubes Despejado
Índice de calor 76 ° F
Punto de rocío 36 ° F
Humedad 26%
Precipitaciones 0.00 pul
Espesor de la nieve 1 in , 0 in , 0 in
UV 8 de una escala de 12
Polen 9.00 de una escala de 12
Calidad del aire No disponible.
Flu Activity No disponible.
METAR KTVL 301753Z AUTO VRB06G16KT 10SM CLR 24/M01 A3016 RMK AO2 SLP137 T02391006 10239 20150 53001

More Conditions Fewer Conditions

Presión 29.94 pul
Visibilidad 10.0 Millas
Nubes Despejado
Índice de calor 76 ° F
Punto de rocío 36 ° F
Humedad 26%
Precipitaciones 0.00 pul
Espesor de la nieve 1 in , 0 in , 0 in
UV 8 de una escala de 12
Polen 9.00 de una escala de 12
Calidad del aire No disponible.
Flu Activity No disponible.
METAR KTVL 301753Z AUTO VRB06G16KT 10SM CLR 24/M01 A3016 RMK AO2 SLP137 T02391006 10239 20150 53001

More Conditions Fewer Conditions

10-Day Weather Forecast

Almanac

Astronomía

Aug. 30, 2014 Salida Puesta
Hora real 6:27 AM PDT 7:33 PM PDT
Crepúsculo civil 5:59 AM PDT 8:00 PM PDT
Crepúsculo náutico 5:27 AM PDT 8:33 PM PDT
Crepúsculo astronómico 4:53 AM PDT 9:07 PM PDT
Luna 11:16 AM PDT 10:14 PM PDT
Horas de luz 14h 00m
Horas de luz
13h 05m
Tomorrow will be 2m 25s shorter.
Creciente, 23% of the Moon is Illuminated
Hoy
Creciente
Sep 2
Cuarto creciente
Sep 8
Luna llena
Sep 15
Cuarto menguante
Sep 24
Nueva

Extremos de hoy

Máximos del estado Bajos del estado

Community

WunderPhotos

Upload Photos

1,748,583 ¡fotos cargadas!

WunderBlogs® & News

Nearby

Grosos de nieve

Estación Profundido Altura
Hagan's Meadow 1 in 8000 ft
Rubicon #2 0 in 7500 ft
Forestdale Creek 0 in 8029 ft
Monitor Pass 0 in 8350 ft
Independence Creek 0 in 6500 ft

Actividad de terremotos

Ciudad Distance Mag. Tiempo y dato
No hay informes recientes de la actividad sísmica.
Magnitud mínima muestra es 2,5.

Temperaturas de aguas costeras

Lugar Temperatura
Sin partes meteorológicos de las estaciones

Estaciones meteorológicas cercanas